Time;durP1;ratioP1;P1;durP2;ratioP2;P2;SDS_P1;SDS_P2;PMS_P1;PMS_P2;Temp;Humidity;BMP_temperature;BMP_pressure;BME280_temperature;BME280_humidity;BME280_pressure;Samples;Min_cycle;Max_cycle;Signal;HPM_P1;HPM_P2
2023/08/27 00:00:22;;;;;;;5.77;4.73;;;26.00;55.80;;;;;;5012909;28;20453;-79
2023/08/27 00:02:50;;;;;;;4.97;4.57;;;26.00;55.90;;;;;;5012138;28;20448;-77
2023/08/27 00:05:18;;;;;;;5.13;4.60;;;26.00;55.80;;;;;;5012636;28;20479;-77
2023/08/27 00:07:46;;;;;;;5.13;4.03;;;26.00;55.90;;;;;;5013090;28;20518;-77
2023/08/27 00:10:16;;;;;;;4.30;4.00;;;25.90;55.90;;;;;;5011960;28;20523;-77
2023/08/27 00:12:45;;;;;;;3.90;3.60;;;26.00;56.00;;;;;;5013161;28;20535;-77
2023/08/27 00:15:13;;;;;;;5.50;3.53;;;25.90;55.90;;;;;;5012935;28;20476;-77
2023/08/27 00:17:41;;;;;;;3.87;3.60;;;25.90;55.90;;;;;;5007167;28;21037;-77
2023/08/27 00:20:10;;;;;;;5.80;4.07;;;25.90;55.90;;;;;;5005041;28;20448;-77
2023/08/27 00:22:38;;;;;;;4.70;3.40;;;25.90;56.00;;;;;;5000687;28;20430;-77
2023/08/27 00:25:07;;;;;;;4.13;3.83;;;25.90;56.20;;;;;;5002733;28;20407;-76
2023/08/27 00:27:35;;;;;;;4.00;3.50;;;25.90;56.30;;;;;;5008201;28;20471;-76
2023/08/27 00:30:05;;;;;;;3.70;3.50;;;25.90;56.30;;;;;;5002429;28;20422;-76
2023/08/27 00:32:33;;;;;;;3.90;3.60;;;25.90;56.20;;;;;;5006914;28;20468;-76
2023/08/27 00:35:03;;;;;;;7.80;4.40;;;25.90;56.40;;;;;;5005703;28;20661;-76
2023/08/27 00:37:31;;;;;;;4.13;3.80;;;25.90;56.40;;;;;;5009307;28;20460;-76
2023/08/27 00:39:59;;;;;;;4.10;3.23;;;25.80;56.40;;;;;;5011870;28;20418;-76
2023/08/27 00:42:27;;;;;;;4.10;3.70;;;25.80;56.40;;;;;;5012649;28;20482;-76
2023/08/27 00:44:55;;;;;;;3.70;3.37;;;25.80;56.40;;;;;;5007579;28;20540;-77
2023/08/27 00:47:24;;;;;;;3.93;3.60;;;25.80;56.50;;;;;;5006769;28;20579;-76
2023/08/27 00:49:52;;;;;;;4.03;3.40;;;25.80;56.50;;;;;;5004577;28;20445;-75
2023/08/27 00:52:20;;;;;;;3.60;3.30;;;25.80;56.50;;;;;;5007881;28;20427;-77
2023/08/27 00:54:48;;;;;;;3.47;3.27;;;25.70;56.20;;;;;;5012337;28;20480;-77
2023/08/27 00:57:16;;;;;;;3.50;3.30;;;25.70;56.30;;;;;;5005334;28;20527;-77
2023/08/27 00:59:44;;;;;;;4.03;2.87;;;25.70;56.50;;;;;;5008797;28;20467;-76
2023/08/27 01:02:12;;;;;;;4.10;3.70;;;25.70;56.60;;;;;;5007540;28;20531;-76
2023/08/27 01:04:41;;;;;;;3.33;3.13;;;25.70;56.70;;;;;;5003234;28;20464;-77
2023/08/27 01:07:12;;;;;;;3.67;3.47;;;25.70;56.70;;;;;;5006364;28;20481;-76
2023/08/27 01:09:45;;;;;;;4.60;3.00;;;25.60;56.60;;;;;;5010918;28;20559;-78
2023/08/27 01:12:15;;;;;;;3.70;3.13;;;25.60;56.70;;;;;;5002487;28;20991;-76
2023/08/27 01:14:44;;;;;;;3.37;3.17;;;25.70;56.80;;;;;;5006403;28;20472;-77
2023/08/27 01:17:11;;;;;;;3.30;3.10;;;25.70;56.90;;;;;;5004730;28;20451;-76
2023/08/27 01:19:41;;;;;;;3.43;3.20;;;25.60;56.60;;;;;;5009914;28;20803;-77
2023/08/27 01:29:41;;;;;;;3.23;2.93;;;25.50;56.70;;;;;;5004242;28;20503;-78
2023/08/27 01:32:11;;;;;;;3.20;3.00;;;25.50;56.90;;;;;;5005963;28;20505;-76
2023/08/27 01:34:39;;;;;;;3.17;2.73;;;25.50;57.10;;;;;;5004744;28;20465;-77
2023/08/27 01:37:07;;;;;;;3.40;2.80;;;25.50;57.00;;;;;;5008132;28;20496;-78
2023/08/27 01:39:35;;;;;;;3.10;2.80;;;25.50;57.00;;;;;;5012853;28;20498;-77
2023/08/27 01:42:03;;;;;;;2.60;2.50;;;25.50;57.00;;;;;;5012979;28;20468;-78
2023/08/27 01:44:30;;;;;;;3.10;2.90;;;25.50;57.20;;;;;;5004267;28;20514;-78
2023/08/27 01:47:00;;;;;;;2.70;2.50;;;25.50;57.00;;;;;;5011975;28;20542;-77
2023/08/27 01:49:28;;;;;;;3.03;2.83;;;25.50;57.10;;;;;;5002257;28;20465;-78
2023/08/27 01:51:56;;;;;;;2.47;2.37;;;25.50;57.10;;;;;;5006355;28;20419;-78
2023/08/27 01:54:24;;;;;;;2.90;2.60;;;25.50;57.10;;;;;;5010210;28;20532;-78
2023/08/27 01:56:52;;;;;;;2.77;2.60;;;25.50;57.20;;;;;;5008644;28;20506;-77
2023/08/27 01:59:19;;;;;;;3.10;2.90;;;25.50;57.30;;;;;;5010154;28;20440;-78
2023/08/27 02:01:47;;;;;;;2.80;2.60;;;25.50;57.20;;;;;;4992950;28;20451;-77
2023/08/27 02:04:17;;;;;;;2.53;2.43;;;25.50;57.10;;;;;;4992742;28;20460;-77
2023/08/27 02:06:45;;;;;;;2.73;2.53;;;25.40;57.10;;;;;;4992453;28;21067;-76
2023/08/27 02:09:13;;;;;;;2.77;2.60;;;25.40;57.40;;;;;;4992700;28;21023;-78
2023/08/27 02:11:41;;;;;;;2.60;2.50;;;25.50;57.50;;;;;;5000609;28;20507;-77
2023/08/27 02:14:09;;;;;;;2.60;2.40;;;25.50;57.40;;;;;;4999981;28;20444;-77
2023/08/27 02:16:38;;;;;;;2.70;2.50;;;25.50;57.40;;;;;;5011865;28;20480;-78
2023/08/27 02:19:06;;;;;;;4.17;3.77;;;25.50;57.30;;;;;;5011726;28;20527;-78
2023/08/27 02:21:35;;;;;;;3.30;3.10;;;25.40;57.40;;;;;;5001521;28;20441;-78
2023/08/27 02:24:04;;;;;;;5.00;4.40;;;25.40;57.40;;;;;;4992312;28;20476;-78
2023/08/27 02:26:31;;;;;;;5.20;3.70;;;25.40;57.50;;;;;;4992228;28;20481;-78
2023/08/27 02:28:59;;;;;;;3.93;3.63;;;25.40;57.60;;;;;;5006233;28;20435;-78
2023/08/27 02:31:28;;;;;;;5.00;3.77;;;25.40;57.50;;;;;;4994133;28;20447;-78
2023/08/27 02:33:55;;;;;;;3.40;3.20;;;25.30;57.60;;;;;;4995275;28;20452;-78
2023/08/27 02:36:23;;;;;;;4.13;3.80;;;25.30;57.70;;;;;;5011463;28;20460;-78
2023/08/27 02:38:54;;;;;;;4.20;3.87;;;25.30;57.90;;;;;;5003838;28;20472;-78
2023/08/27 02:41:22;;;;;;;4.30;4.00;;;25.30;57.80;;;;;;5011513;28;20452;-78
2023/08/27 02:43:49;;;;;;;4.50;4.10;;;25.30;57.90;;;;;;5011512;28;20490;-78
2023/08/27 02:46:17;;;;;;;3.90;3.60;;;25.20;57.90;;;;;;5011321;28;21130;-78
2023/08/27 02:48:45;;;;;;;4.37;3.73;;;25.30;57.90;;;;;;5002391;28;20510;-78
2023/08/27 02:51:13;;;;;;;3.67;3.43;;;25.30;57.90;;;;;;5003235;28;20444;-78
2023/08/27 02:53:40;;;;;;;5.10;4.27;;;25.30;58.60;;;;;;5011387;28;20440;-78
2023/08/27 02:56:10;;;;;;;4.13;3.73;;;25.20;58.00;;;;;;5010908;28;20535;-77
2023/08/27 02:58:38;;;;;;;3.30;3.10;;;25.20;58.00;;;;;;5010451;28;20865;-78
2023/08/27 03:01:06;;;;;;;4.40;3.23;;;25.20;57.80;;;;;;5003357;28;20448;-78
2023/08/27 03:03:33;;;;;;;3.77;3.47;;;25.20;58.10;;;;;;5010222;28;21029;-77
2023/08/27 03:06:02;;;;;;;3.73;3.47;;;25.20;58.00;;;;;;5011345;28;20528;-78
2023/08/27 03:08:29;;;;;;;3.63;3.33;;;25.10;58.30;;;;;;5011109;28;20450;-79
2023/08/27 03:10:57;;;;;;;3.60;3.40;;;25.10;58.20;;;;;;5011151;28;20479;-78
2023/08/27 03:13:27;;;;;;;3.80;3.50;;;25.10;58.00;;;;;;5010223;28;20497;-78
2023/08/27 03:15:55;;;;;;;3.67;3.47;;;25.10;58.30;;;;;;4991194;28;20540;-79
2023/08/27 03:18:24;;;;;;;3.07;2.87;;;25.10;58.30;;;;;;4991148;28;20477;-79
2023/08/27 03:20:51;;;;;;;3.63;3.33;;;25.10;58.10;;;;;;4995985;28;20527;-76
2023/08/27 03:23:20;;;;;;;4.10;3.80;;;25.10;58.40;;;;;;5002827;28;20469;-77
2023/08/27 03:25:49;;;;;;;4.20;3.03;;;25.00;58.20;;;;;;4991440;28;20437;-76
2023/08/27 03:28:17;;;;;;;3.80;3.50;;;25.00;58.40;;;;;;5010185;28;20530;-77
2023/08/27 03:30:46;;;;;;;3.90;3.60;;;25.00;58.40;;;;;;5010567;28;20444;-77
2023/08/27 03:33:14;;;;;;;2.97;2.77;;;25.00;58.40;;;;;;5011352;28;20456;-76
2023/08/27 03:35:42;;;;;;;2.80;2.70;;;25.00;58.50;;;;;;5010841;28;20536;-76
2023/08/27 03:38:10;;;;;;;3.30;3.10;;;25.00;58.50;;;;;;5010319;28;20460;-76
2023/08/27 03:40:38;;;;;;;2.90;2.70;;;25.00;58.50;;;;;;5002336;28;20503;-76
2023/08/27 03:43:06;;;;;;;3.63;3.33;;;25.00;58.70;;;;;;5010911;28;20423;-76
2023/08/27 03:45:38;;;;;;;3.10;2.90;;;25.00;58.70;;;;;;5010653;28;20494;-76
2023/08/27 03:48:08;;;;;;;2.90;2.70;;;25.00;58.60;;;;;;5010701;28;20468;-77
2023/08/27 03:50:36;;;;;;;5.93;3.10;;;25.00;58.40;;;;;;5010608;28;20502;-76
2023/08/27 03:53:04;;;;;;;2.80;2.60;;;25.00;58.50;;;;;;5011056;28;20523;-76
2023/08/27 03:55:38;;;;;;;2.73;2.63;;;25.00;58.80;;;;;;5011010;28;20427;-76
2023/08/27 03:58:06;;;;;;;2.93;2.73;;;25.00;58.60;;;;;;5010782;28;20452;-76
2023/08/27 04:00:34;;;;;;;2.90;2.77;;;24.90;58.60;;;;;;5010421;28;20436;-76
2023/08/27 04:03:02;;;;;;;2.90;2.70;;;24.90;58.60;;;;;;5010673;28;20440;-76
2023/08/27 04:05:32;;;;;;;2.93;2.73;;;24.90;58.60;;;;;;5010587;28;20440;-76
2023/08/27 04:08:00;;;;;;;3.20;3.00;;;24.90;58.60;;;;;;5010100;28;20490;-76
2023/08/27 04:10:28;;;;;;;2.77;2.60;;;24.90;58.70;;;;;;5014365;28;20436;-75
2023/08/27 04:12:56;;;;;;;2.83;2.63;;;24.80;58.70;;;;;;5014311;28;20444;-75
2023/08/27 04:15:26;;;;;;;2.67;2.47;;;24.80;59.00;;;;;;5014438;28;20451;-75
2023/08/27 04:17:54;;;;;;;2.50;2.40;;;24.80;58.80;;;;;;5014754;28;20464;-76
2023/08/27 04:20:22;;;;;;;2.60;2.50;;;24.80;58.90;;;;;;5013905;28;20444;-76
2023/08/27 04:22:51;;;;;;;2.03;1.93;;;24.80;58.80;;;;;;5012825;28;20458;-77
2023/08/27 04:25:19;;;;;;;2.50;2.40;;;24.80;58.80;;;;;;5013074;28;20559;-76
2023/08/27 04:27:47;;;;;;;2.23;2.10;;;24.80;58.70;;;;;;5013540;28;21005;-76
2023/08/27 04:30:16;;;;;;;3.23;3.03;;;24.80;58.80;;;;;;5014162;28;20437;-77
2023/08/27 04:32:44;;;;;;;2.33;2.23;;;24.70;58.80;;;;;;5013974;28;20444;-76
2023/08/27 04:35:12;;;;;;;2.50;2.40;;;24.70;58.80;;;;;;5013946;28;20479;-77
2023/08/27 04:37:40;;;;;;;2.30;2.10;;;24.70;59.10;;;;;;5013245;28;20464;-75
2023/08/27 04:40:11;;;;;;;2.30;2.20;;;24.70;59.00;;;;;;5013839;28;20871;-76
2023/08/27 04:42:39;;;;;;;2.97;2.77;;;24.70;59.10;;;;;;5013402;28;20452;-76
2023/08/27 04:45:09;;;;;;;2.60;2.40;;;24.70;58.80;;;;;;5013268;28;20477;-76
2023/08/27 04:47:37;;;;;;;2.43;2.23;;;24.70;59.10;;;;;;5013326;28;20504;-76
2023/08/27 04:50:07;;;;;;;2.50;2.40;;;24.70;59.00;;;;;;5013432;28;20500;-77
2023/08/27 04:52:36;;;;;;;2.60;2.50;;;24.70;58.90;;;;;;5013545;28;20440;-77
2023/08/27 04:55:05;;;;;;;2.67;2.47;;;24.70;59.20;;;;;;5013184;28;20468;-76
2023/08/27 04:57:35;;;;;;;2.33;2.23;;;24.70;59.20;;;;;;5013513;28;20460;-77
2023/08/27 05:00:04;;;;;;;2.20;2.10;;;24.70;58.90;;;;;;5013599;28;20479;-77
2023/08/27 05:02:32;;;;;;;2.53;2.37;;;24.60;59.10;;;;;;5013081;28;20479;-77
2023/08/27 05:05:00;;;;;;;2.30;2.20;;;24.60;59.00;;;;;;5012764;28;20532;-77
2023/08/27 05:07:27;;;;;;;2.33;2.23;;;24.60;59.00;;;;;;5012785;28;20464;-77
2023/08/27 05:09:55;;;;;;;2.33;2.23;;;24.60;59.20;;;;;;5012522;28;20456;-77
2023/08/27 05:12:23;;;;;;;2.37;2.27;;;24.60;59.00;;;;;;5013299;28;20460;-78
2023/08/27 05:14:53;;;;;;;2.53;2.33;;;24.60;59.10;;;;;;5005336;28;20454;-78
2023/08/27 05:17:20;;;;;;;2.03;1.93;;;24.60;59.20;;;;;;5012876;28;20503;-79
2023/08/27 05:19:48;;;;;;;2.40;2.30;;;24.60;58.90;;;;;;5011990;28;20532;-78
2023/08/27 05:22:16;;;;;;;1.90;1.80;;;24.60;59.10;;;;;;5012394;28;20440;-78
2023/08/27 05:24:44;;;;;;;2.40;2.30;;;24.60;59.30;;;;;;5013022;28;20540;-79
2023/08/27 05:27:12;;;;;;;2.00;1.90;;;24.60;59.40;;;;;;5012567;28;20552;-78
2023/08/27 05:29:40;;;;;;;2.17;2.07;;;24.60;59.20;;;;;;5012436;28;20476;-77
2023/08/27 05:32:10;;;;;;;2.10;2.00;;;24.60;59.20;;;;;;5012988;28;20548;-78
2023/08/27 05:34:37;;;;;;;3.53;1.90;;;24.60;59.10;;;;;;5012498;28;20947;-79
2023/08/27 05:37:05;;;;;;;1.90;1.80;;;24.60;59.10;;;;;;5008101;28;20555;-77
2023/08/27 05:39:34;;;;;;;1.93;1.83;;;24.60;59.30;;;;;;5012915;28;20444;-79
2023/08/27 05:42:02;;;;;;;2.20;2.10;;;24.60;59.20;;;;;;5012835;28;20455;-78
2023/08/27 05:44:31;;;;;;;2.00;1.90;;;24.60;59.30;;;;;;5012671;28;20423;-78
2023/08/27 05:46:59;;;;;;;2.00;1.90;;;24.60;59.00;;;;;;5012552;28;20460;-79
2023/08/27 05:49:29;;;;;;;1.93;1.83;;;24.60;59.10;;;;;;5012110;28;20502;-79
2023/08/27 05:51:57;;;;;;;2.03;1.93;;;24.60;59.20;;;;;;5012396;28;20436;-78
2023/08/27 05:54:25;;;;;;;1.90;1.80;;;24.60;59.20;;;;;;5012400;28;20448;-77
2023/08/27 05:56:53;;;;;;;2.00;1.90;;;24.60;59.00;;;;;;5012174;28;20487;-78
2023/08/27 05:59:21;;;;;;;1.83;1.73;;;24.60;59.20;;;;;;5012311;28;20420;-79
2023/08/27 06:01:49;;;;;;;2.17;2.07;;;24.60;59.10;;;;;;5012015;28;20460;-78
2023/08/27 06:04:19;;;;;;;1.73;1.60;;;24.60;59.10;;;;;;5012551;28;20436;-77
2023/08/27 06:06:49;;;;;;;2.17;2.07;;;24.60;59.40;;;;;;5012008;28;20460;-80
2023/08/27 06:09:17;;;;;;;1.90;1.80;;;24.60;60.00;;;;;;5012122;28;20526;-78
2023/08/27 06:11:45;;;;;;;2.00;1.80;;;24.70;59.20;;;;;;5011886;28;20452;-78
2023/08/27 06:14:13;;;;;;;1.93;1.83;;;24.70;59.30;;;;;;5011785;28;20472;-79
2023/08/27 06:16:41;;;;;;;2.00;1.90;;;24.70;59.20;;;;;;5011603;28;20560;-78
2023/08/27 06:19:08;;;;;;;2.27;1.90;;;24.80;59.20;;;;;;5012362;28;20464;-80
2023/08/27 06:21:37;;;;;;;1.70;1.60;;;24.80;59.10;;;;;;5012133;28;20512;-79
2023/08/27 06:24:07;;;;;;;1.87;1.80;;;24.80;59.10;;;;;;5012107;28;20444;-78
2023/08/27 06:26:35;;;;;;;1.93;1.83;;;24.80;59.20;;;;;;5011790;28;20523;-78
2023/08/27 06:29:05;;;;;;;1.93;1.80;;;24.80;59.00;;;;;;5011598;28;20476;-79
2023/08/27 06:31:34;;;;;;;1.70;1.60;;;24.80;59.00;;;;;;5012157;28;20523;-79
2023/08/27 06:34:02;;;;;;;1.83;1.77;;;24.90;59.00;;;;;;5011895;28;20448;-78
2023/08/27 06:36:30;;;;;;;1.80;1.70;;;24.90;59.00;;;;;;5006623;28;21034;-78
2023/08/27 06:38:58;;;;;;;1.80;1.70;;;25.00;59.20;;;;;;5011340;28;20444;-79
2023/08/27 06:41:27;;;;;;;2.00;1.80;;;25.00;58.80;;;;;;5011700;28;20494;-78
2023/08/27 06:43:55;;;;;;;1.90;1.80;;;25.00;58.90;;;;;;5011206;28;20482;-77
2023/08/27 06:46:23;;;;;;;1.90;1.80;;;25.10;58.80;;;;;;5011883;28;20483;-79
2023/08/27 06:48:51;;;;;;;2.27;2.17;;;25.10;58.80;;;;;;5011889;28;20999;-79
2023/08/27 06:51:19;;;;;;;1.90;1.80;;;25.10;58.70;;;;;;5011753;28;20452;-78
2023/08/27 06:53:47;;;;;;;2.27;2.17;;;25.10;58.30;;;;;;5011125;28;20423;-78
2023/08/27 06:56:14;;;;;;;2.10;2.00;;;25.10;58.80;;;;;;5011142;28;20445;-78
2023/08/27 06:58:44;;;;;;;1.90;1.80;;;25.10;58.70;;;;;;5011415;28;20632;-77
2023/08/27 07:01:12;;;;;;;1.97;1.87;;;25.10;58.60;;;;;;5011239;28;20518;-78
2023/08/27 07:03:40;;;;;;;1.80;1.70;;;25.20;58.40;;;;;;5011012;28;20452;-77
2023/08/27 07:06:09;;;;;;;2.07;1.97;;;25.20;58.50;;;;;;5011397;28;20444;-79
2023/08/27 07:08:37;;;;;;;1.70;1.60;;;25.20;58.50;;;;;;5010829;28;20453;-77
2023/08/27 07:11:04;;;;;;;1.80;1.70;;;25.20;58.40;;;;;;5011220;28;20495;-78
2023/08/27 07:13:33;;;;;;;2.23;2.00;;;25.30;58.40;;;;;;5010774;28;20451;-77
2023/08/27 07:16:02;;;;;;;1.90;1.80;;;25.30;58.20;;;;;;5011121;28;20502;-78
2023/08/27 07:18:30;;;;;;;1.70;1.60;;;25.40;58.40;;;;;;5011211;28;20448;-78
2023/08/27 07:20:58;;;;;;;1.80;1.70;;;25.40;58.10;;;;;;5003240;28;20440;-77
2023/08/27 07:23:26;;;;;;;1.93;1.83;;;25.40;58.20;;;;;;5010625;28;20451;-78
2023/08/27 07:25:54;;;;;;;1.70;1.60;;;25.40;58.20;;;;;;5010766;28;20460;-79
2023/08/27 07:28:22;;;;;;;1.70;1.60;;;25.50;58.20;;;;;;5011105;28;20487;-78
2023/08/27 07:30:50;;;;;;;1.70;1.60;;;25.50;57.80;;;;;;5011009;28;20480;-77
2023/08/27 07:33:19;;;;;;;1.53;1.53;;;25.50;57.70;;;;;;5018241;28;20432;-77
2023/08/27 07:35:47;;;;;;;2.07;1.97;;;25.50;58.10;;;;;;5011099;28;20486;-79
2023/08/27 07:38:15;;;;;;;1.90;1.70;;;25.50;57.70;;;;;;5010895;28;20559;-78
2023/08/27 07:40:43;;;;;;;1.90;1.80;;;25.50;58.10;;;;;;5010689;28;20532;-80
2023/08/27 07:43:11;;;;;;;1.90;1.80;;;25.50;57.90;;;;;;5010786;28;20522;-79
2023/08/27 07:45:39;;;;;;;1.63;1.53;;;25.50;58.10;;;;;;5014874;28;20479;-79
2023/08/27 07:48:07;;;;;;;1.73;1.63;;;25.60;58.00;;;;;;5014488;28;20467;-79
2023/08/27 07:50:40;;;;;;;1.70;1.60;;;25.60;57.80;;;;;;5009527;28;20618;-79
2023/08/27 07:53:08;;;;;;;1.50;1.50;;;25.60;58.10;;;;;;5014784;28;20468;-78
2023/08/27 07:55:36;;;;;;;1.77;1.60;;;25.60;57.90;;;;;;5014149;28;20536;-79
2023/08/27 07:58:04;;;;;;;1.60;1.60;;;25.70;58.80;;;;;;5014850;28;20559;-77
2023/08/27 08:00:32;;;;;;;1.97;1.87;;;25.80;58.00;;;;;;5011829;28;20938;-77
2023/08/27 08:03:00;;;;;;;2.07;1.53;;;25.90;58.00;;;;;;5010292;28;20531;-77
2023/08/27 08:05:28;;;;;;;1.70;1.60;;;26.00;57.90;;;;;;5013383;28;20448;-78
2023/08/27 08:07:58;;;;;;;1.67;1.57;;;26.10;57.60;;;;;;5013848;28;20526;-79
2023/08/27 08:10:27;;;;;;;1.70;1.60;;;26.20;57.70;;;;;;5014183;28;20464;-76
2023/08/27 08:12:54;;;;;;;1.30;1.30;;;26.20;57.50;;;;;;5013674;28;20518;-78
2023/08/27 08:15:22;;;;;;;1.40;1.40;;;26.30;57.60;;;;;;5013822;28;20420;-77
2023/08/27 08:17:50;;;;;;;1.93;1.83;;;26.30;57.50;;;;;;5014197;28;20504;-77
2023/08/27 08:20:18;;;;;;;2.10;2.00;;;26.40;57.40;;;;;;5014358;28;20998;-77
2023/08/27 08:22:46;;;;;;;1.43;1.43;;;26.50;57.40;;;;;;5014283;28;20419;-78
2023/08/27 08:25:16;;;;;;;2.20;1.77;;;26.60;57.40;;;;;;5014044;28;20488;-78
2023/08/27 08:27:44;;;;;;;2.60;1.60;;;26.80;57.30;;;;;;5014112;28;20547;-79
2023/08/27 08:30:12;;;;;;;4.53;3.97;;;27.00;57.20;;;;;;5016512;28;20535;-79
2023/08/27 08:32:40;;;;;;;4.73;4.30;;;26.70;54.20;;;;;;5013952;28;20921;-79
2023/08/27 08:35:08;;;;;;;6.80;6.10;;;25.90;57.00;;;;;;5013566;28;20444;-79
2023/08/27 08:37:36;;;;;;;9.83;4.37;;;25.70;58.10;;;;;;5017061;28;20468;-80
2023/08/27 08:40:06;;;;;;;4.97;4.47;;;24.20;57.00;;;;;;5018033;28;20445;-79
2023/08/27 08:42:38;;;;;;;6.17;5.50;;;23.70;58.80;;;;;;5017131;28;20511;-78
2023/08/27 08:45:11;;;;;;;5.50;4.90;;;22.90;60.20;;;;;;5009133;28;20507;-79
2023/08/27 08:47:39;;;;;;;4.83;4.43;;;22.70;61.90;;;;;;5016245;28;20492;-81
2023/08/27 08:50:08;;;;;;;7.67;4.80;;;22.60;62.00;;;;;;5015963;28;20479;-81
2023/08/27 08:52:38;;;;;;;5.67;5.10;;;22.40;63.20;;;;;;5016092;28;20527;-81
2023/08/27 08:55:08;;;;;;;11.97;5.03;;;22.20;64.20;;;;;;5015573;28;20441;-80
2023/08/27 08:57:40;;;;;;;5.23;4.80;;;21.80;66.40;;;;;;5015612;28;20443;-77
2023/08/27 09:00:11;;;;;;;6.67;5.10;;;21.50;69.20;;;;;;5014864;28;20479;-79
2023/08/27 09:02:39;;;;;;;5.63;5.03;;;21.50;69.50;;;;;;5013357;28;20441;-78
2023/08/27 09:05:09;;;;;;;6.23;5.47;;;21.50;71.90;;;;;;5015625;28;20433;-77
2023/08/27 09:07:38;;;;;;;6.93;3.70;;;21.50;73.10;;;;;;5017176;28;20480;-82
2023/08/27 09:10:08;;;;;;;2.30;2.10;;;22.00;78.60;;;;;;5015370;28;20463;-78
2023/08/27 09:12:39;;;;;;;4.13;2.27;;;23.00;75.70;;;;;;5014715;28;20436;-79
2023/08/27 09:15:09;;;;;;;7.37;3.10;;;23.80;71.80;;;;;;5011342;28;20443;-80
2023/08/27 09:17:37;;;;;;;8.20;2.87;;;24.50;68.50;;;;;;5013286;28;20495;-78
2023/08/27 09:20:07;;;;;;;5.93;2.77;;;25.00;67.50;;;;;;5014582;28;20499;-79
2023/08/27 09:22:35;;;;;;;3.43;2.60;;;25.50;66.70;;;;;;5006731;28;20505;-78
2023/08/27 09:25:05;;;;;;;10.60;2.93;;;25.90;65.30;;;;;;5013864;28;20473;-78
2023/08/27 09:27:33;;;;;;;4.50;2.50;;;26.20;63.90;;;;;;5012790;28;20434;-79
2023/08/27 09:30:04;;;;;;;5.43;2.30;;;26.50;63.00;;;;;;5013845;28;20419;-78
2023/08/27 09:32:32;;;;;;;6.43;2.70;;;26.70;62.20;;;;;;5013532;28;20448;-79
2023/08/27 09:35:00;;;;;;;7.90;2.83;;;26.90;61.60;;;;;;5014632;28;20459;-78
2023/08/27 09:37:28;;;;;;;9.20;2.60;;;27.00;62.00;;;;;;5014126;28;20439;-80
2023/08/27 09:39:56;;;;;;;3.57;2.40;;;27.20;62.40;;;;;;5016229;28;20442;-79
2023/08/27 09:42:24;;;;;;;3.10;2.80;;;27.30;61.80;;;;;;5012788;28;20418;-78
2023/08/27 09:44:53;;;;;;;5.27;2.03;;;27.30;60.30;;;;;;5012450;28;20445;-78
2023/08/27 09:47:29;;;;;;;5.07;2.43;;;27.30;60.00;;;;;;5012908;28;20547;-77
2023/08/27 09:49:57;;;;;;;4.40;2.10;;;27.40;59.80;;;;;;5014045;28;20450;-81
2023/08/27 09:52:27;;;;;;;4.40;2.27;;;27.50;59.80;;;;;;5011714;28;20447;-77
2023/08/27 09:54:57;;;;;;;2.40;2.20;;;27.50;59.80;;;;;;5012414;28;20443;-79
2023/08/27 09:57:25;;;;;;;6.23;2.63;;;27.60;59.40;;;;;;5009299;28;20460;-76
2023/08/27 09:59:53;;;;;;;4.03;2.20;;;27.60;59.10;;;;;;5012129;28;20523;-77
2023/08/27 10:02:21;;;;;;;3.80;2.33;;;27.60;59.70;;;;;;5012127;28;20407;-78
2023/08/27 10:04:53;;;;;;;2.50;1.97;;;27.70;59.30;;;;;;5012311;28;20494;-78
2023/08/27 10:07:21;;;;;;;4.60;2.37;;;27.70;59.00;;;;;;5011744;28;20536;-77
2023/08/27 10:09:50;;;;;;;5.40;2.30;;;27.70;59.00;;;;;;5010877;28;20466;-78
2023/08/27 10:12:18;;;;;;;7.83;2.13;;;27.80;58.70;;;;;;5011663;28;20541;-79
2023/08/27 10:14:46;;;;;;;5.33;2.13;;;27.80;58.70;;;;;;5012585;28;20422;-79
2023/08/27 10:17:15;;;;;;;6.10;2.07;;;27.80;58.80;;;;;;5030395;23;20496;-75
2023/08/27 10:19:43;;;;;;;2.40;1.87;;;27.90;58.70;;;;;;5015582;28;20997;-76
2023/08/27 10:22:12;;;;;;;3.10;1.90;;;28.10;58.40;;;;;;5015078;28;20505;-75
2023/08/27 10:24:41;;;;;;;3.77;2.10;;;28.30;58.30;;;;;;5014533;28;20594;-78
2023/08/27 10:27:09;;;;;;;4.67;2.07;;;28.50;58.20;;;;;;5024367;28;20455;-75
2023/08/27 10:29:37;;;;;;;2.80;2.60;;;28.60;58.40;;;;;;5015605;28;20697;-77
2023/08/27 10:32:07;;;;;;;3.67;2.20;;;26.70;57.30;;;;;;5019683;28;20887;-76
2023/08/27 10:34:35;;;;;;;3.67;3.00;;;25.20;59.60;;;;;;5021589;28;20762;-76
2023/08/27 10:37:05;;;;;;;2.70;2.50;;;24.20;63.90;;;;;;5020814;28;20487;-76
2023/08/27 10:39:35;;;;;;;2.60;2.50;;;22.80;67.40;;;;;;5019802;28;20444;-76
2023/08/27 10:42:04;;;;;;;4.13;2.60;;;22.00;70.70;;;;;;5019628;28;20440;-78
2023/08/27 10:44:32;;;;;;;2.57;2.37;;;21.60;73.80;;;;;;5011366;28;20452;-77
2023/08/27 10:47:10;;;;;;;3.27;2.93;;;21.50;74.80;;;;;;5011626;28;20495;-78
2023/08/27 10:49:38;;;;;;;2.50;2.40;;;21.60;76.30;;;;;;5017479;28;20474;-74
2023/08/27 10:52:16;;;;;;;3.07;2.87;;;21.40;75.30;;;;;;5017216;28;20472;-77
2023/08/27 10:54:46;;;;;;;3.27;3.03;;;21.50;79.40;;;;;;5015211;28;20519;-77
2023/08/27 10:57:18;;;;;;;2.60;2.40;;;22.20;78.70;;;;;;5011222;28;20456;-77
2023/08/27 10:59:45;;;;;;;3.00;2.03;;;22.60;76.00;;;;;;5019084;28;20432;-77
2023/08/27 11:02:15;;;;;;;1.43;1.43;;;22.70;74.40;;;;;;5026138;28;20463;-77
2023/08/27 11:04:44;;;;;;;2.00;1.77;;;23.20;72.50;;;;;;5019695;28;20489;-78
2023/08/27 11:07:14;;;;;;;1.80;1.70;;;23.40;71.00;;;;;;5011025;28;20455;-76
2023/08/27 11:09:48;;;;;;;1.60;1.50;;;23.90;71.50;;;;;;5013547;28;20419;-76
2023/08/27 11:12:23;;;;;;;1.30;1.20;;;24.80;69.20;;;;;;5011005;28;20484;-76
2023/08/27 11:14:51;;;;;;;1.20;1.20;;;25.20;63.80;;;;;;5025492;28;20447;-75
2023/08/27 11:17:24;;;;;;;1.90;1.23;;;25.20;64.00;;;;;;5016547;28;20523;-76
2023/08/27 11:19:52;;;;;;;2.30;1.20;;;25.60;62.40;;;;;;5010770;28;20447;-75
2023/08/27 11:22:21;;;;;;;1.63;1.00;;;26.20;62.20;;;;;;5022845;28;20468;-75
2023/08/27 11:24:52;;;;;;;1.40;1.30;;;26.70;59.50;;;;;;5032330;28;20516;-75
2023/08/27 11:27:22;;;;;;;1.13;1.13;;;26.70;58.30;;;;;;5019127;28;20484;-76
2023/08/27 11:29:50;;;;;;;1.10;1.10;;;27.00;57.30;;;;;;5022930;28;20440;-76
2023/08/27 11:32:20;;;;;;;0.90;0.90;;;27.00;57.90;;;;;;5010942;28;20555;-75
2023/08/27 11:34:49;;;;;;;1.13;1.13;;;27.40;57.30;;;;;;5026511;28;20541;-75
2023/08/27 11:37:20;;;;;;;0.83;0.83;;;26.80;55.00;;;;;;5021796;28;20558;-75
2023/08/27 11:39:50;;;;;;;1.30;1.20;;;27.00;56.10;;;;;;5011275;28;20456;-75
2023/08/27 11:42:18;;;;;;;0.90;0.90;;;27.10;55.80;;;;;;5017240;28;20532;-75
2023/08/27 11:44:50;;;;;;;0.90;0.90;;;27.60;56.10;;;;;;5033691;28;20455;-76
2023/08/27 11:47:18;;;;;;;0.93;0.93;;;27.90;54.90;;;;;;5010554;28;20439;-75
2023/08/27 11:49:46;;;;;;;1.23;1.23;;;27.90;53.70;;;;;;5014368;28;20469;-76
2023/08/27 11:52:14;;;;;;;0.83;0.83;;;27.50;54.40;;;;;;5025228;28;20528;-76
2023/08/27 11:54:43;;;;;;;1.20;1.10;;;27.60;54.80;;;;;;5025377;28;20955;-76
2023/08/27 11:57:13;;;;;;;0.90;0.90;;;27.80;55.10;;;;;;5026100;28;20433;-76
2023/08/27 11:59:41;;;;;;;1.30;1.20;;;28.10;52.90;;;;;;5033131;28;20516;-76
2023/08/27 12:02:11;;;;;;;0.90;0.90;;;27.90;53.80;;;;;;5022916;28;20421;-76
2023/08/27 12:04:41;;;;;;;1.07;0.87;;;28.20;53.10;;;;;;5014754;28;20535;-76
2023/08/27 12:07:10;;;;;;;1.17;1.07;;;28.40;52.70;;;;;;5009833;28;20491;-77
2023/08/27 12:09:39;;;;;;;1.00;1.00;;;27.90;53.40;;;;;;5016084;28;20444;-77
2023/08/27 12:12:08;;;;;;;0.93;0.93;;;27.90;53.70;;;;;;5019092;28;20470;-77
2023/08/27 12:14:38;;;;;;;3.00;1.13;;;28.10;53.40;;;;;;5012096;28;20414;-78
2023/08/27 12:17:08;;;;;;;3.80;3.00;;;28.20;54.00;;;;;;5031062;28;20450;-78
2023/08/27 12:19:38;;;;;;;5.03;2.43;;;28.50;53.30;;;;;;5013685;28;20830;-78
2023/08/27 12:22:06;;;;;;;1.60;1.50;;;28.80;53.40;;;;;;5019324;28;20472;-77
2023/08/27 12:24:34;;;;;;;5.93;2.10;;;29.00;52.30;;;;;;5013162;28;20452;-78
2023/08/27 12:27:03;;;;;;;1.53;1.10;;;29.10;50.50;;;;;;5019395;28;20442;-79
2023/08/27 12:29:32;;;;;;;2.13;1.20;;;29.10;50.40;;;;;;5019963;28;20443;-77
2023/08/27 12:32:09;;;;;;;2.30;1.10;;;29.20;50.60;;;;;;5018157;28;20473;-79
2023/08/27 12:34:37;;;;;;;1.30;1.20;;;29.20;49.40;;;;;;5015195;28;20444;-78
2023/08/27 12:37:05;;;;;;;3.23;1.20;;;29.40;49.30;;;;;;5019472;28;20521;-79
2023/08/27 12:39:33;;;;;;;0.90;0.90;;;29.50;47.60;;;;;;5020641;28;20823;-77
2023/08/27 12:42:02;;;;;;;2.37;1.30;;;29.70;48.60;;;;;;5023919;28;20409;-78
2023/08/27 12:44:31;;;;;;;1.00;0.90;;;29.70;46.30;;;;;;5019041;28;20519;-77
2023/08/27 12:46:59;;;;;;;1.10;1.00;;;29.20;47.60;;;;;;5024589;28;20432;-79
2023/08/27 12:49:29;;;;;;;1.97;1.30;;;29.40;48.30;;;;;;5017841;28;20475;-78
2023/08/27 12:51:57;;;;;;;1.43;1.00;;;29.40;47.80;;;;;;5015735;28;20447;-76
2023/08/27 12:54:26;;;;;;;1.80;1.30;;;29.50;46.20;;;;;;5014300;28;20787;-79
2023/08/27 12:56:54;;;;;;;1.00;1.00;;;29.10;46.60;;;;;;5020297;28;20456;-79
2023/08/27 12:59:24;;;;;;;1.57;1.00;;;29.40;47.10;;;;;;5025881;28;20467;-79
2023/08/27 13:01:52;;;;;;;1.33;1.20;;;29.80;46.10;;;;;;5023922;28;20440;-79